Time;durP1;ratioP1;P1;durP2;ratioP2;P2;SDS_P1;SDS_P2;PMS_P1;PMS_P2;Temp;Humidity;BMP_temperature;BMP_pressure;BME280_temperature;BME280_humidity;BME280_pressure;Samples;Min_cycle;Max_cycle;Signal;HPM_P1;HPM_P2
2021/04/13 00:02:38;;;;;;;;;;;;;;;-1.70;100.00;100456.88;5054910;28;19925;-81
2021/04/13 00:05:10;;;;;;;;;;;;;;;-1.69;100.00;100450.25;5054758;28;20506;-80
2021/04/13 00:07:38;;;;;;;;;;;;;;;-1.97;100.00;100455.03;5054861;28;19924;-81
2021/04/13 00:10:13;;;;;;;;;;;;;;;-2.49;100.00;100458.31;5054307;28;19924;-80
2021/04/13 00:12:40;;;;;;;;;;;;;;;-2.42;100.00;100459.53;5054779;28;20001;-80
2021/04/13 00:15:09;;;;;;;;;;;;;;;-2.12;100.00;100461.63;5087040;28;19954;-81
2021/04/13 00:17:38;;;;;;;;;;;;;;;-1.98;100.00;100467.09;5086731;28;19925;-80
2021/04/13 00:20:20;;;;;;;;;;;;;;;-2.17;100.00;100461.75;5036869;28;19925;-80
2021/04/13 00:22:48;;;;;;;;;;;;;;;-2.25;100.00;100464.38;5053118;28;19931;-81
2021/04/13 00:25:26;;;;;;;;;;;;;;;-2.44;100.00;100464.50;5053050;28;19928;-80
2021/04/13 00:27:54;;;;;;;;;;;;;;;-2.17;100.00;100461.75;5054518;28;20288;-80
2021/04/13 00:30:22;;;;;;;;;;;;;;;-2.34;100.00;100450.63;5054526;28;20296;-80
2021/04/13 00:32:59;;;;;;;;;;;;;;;-2.39;100.00;100460.84;5052986;28;20023;-81
2021/04/13 00:38:12;;;;;;;;;;;;;;;-2.34;100.00;100453.34;5054115;28;19924;-80
2021/04/13 00:40:39;;;;;;;;;;;;;;;-2.32;100.00;100453.03;5054093;28;19925;-80
2021/04/13 00:43:06;;;;;;;;;;;;;;;-2.04;100.00;100458.19;5053929;28;20006;-81
2021/04/13 00:45:36;;;;;;;;;;;;;;;-2.35;100.00;100461.88;5054019;28;19925;-80
2021/04/13 00:48:04;;;;;;;;;;;;;;;-2.56;100.00;100447.75;5054177;28;19925;-80
2021/04/13 00:50:32;;;;;;;;;;;;;;;-2.44;100.00;100456.28;5052959;28;20399;-80
2021/04/13 00:53:01;;;;;;;;;;;;;;;-2.62;100.00;100454.44;5052258;28;20377;-80
2021/04/13 00:55:30;;;;;;;;;;;;;;;-2.76;100.00;100456.38;5086209;28;19925;-80
2021/04/13 00:58:17;;;;;;;;;;;;;;;-2.74;100.00;100453.34;5052409;28;19924;-81
2021/04/13 01:00:50;;;;;;;;;;;;;;;-2.35;100.00;100459.91;5053777;28;20268;-80
2021/04/13 01:03:17;;;;;;;;;;;;;;;-2.55;100.00;100454.88;5053634;28;19932;-80
2021/04/13 01:05:46;;;;;;;;;;;;;;;-2.45;100.00;100449.19;5053724;28;20032;-81
2021/04/13 01:08:18;;;;;;;;;;;;;;;-2.43;100.00;100452.44;5053372;28;20043;-80
2021/04/13 01:10:45;;;;;;;;;;;;;;;-2.61;100.00;100450.63;5053711;28;19929;-80
2021/04/13 01:13:14;;;;;;;;;;;;;;;-2.91;100.00;100448.47;5052588;28;19935;-80
2021/04/13 01:15:42;;;;;;;;;;;;;;;-2.93;100.00;100458.88;5052545;28;19925;-80
2021/04/13 01:18:11;;;;;;;;;;;;;;;-2.85;100.00;100462.84;5035872;28;19924;-80
2021/04/13 01:20:45;;;;;;;;;;;;;;;-2.52;100.00;100465.22;5052923;28;19925;-80
2021/04/13 01:23:18;;;;;;;;;;;;;;;-2.55;100.00;100460.34;5053593;28;19963;-80
2021/04/13 01:25:46;;;;;;;;;;;;;;;-2.76;100.00;100452.84;5053642;28;19951;-80
2021/04/13 01:28:18;;;;;;;;;;;;;;;-2.84;100.00;100454.34;5052259;28;19929;-80
2021/04/13 01:30:50;;;;;;;;;;;;;;;-2.82;100.00;100454.88;5053438;28;19925;-81
2021/04/13 01:33:22;;;;;;;;;;;;;;;-2.91;100.00;100445.72;5053670;28;19975;-80
2021/04/13 01:35:53;;;;;;;;;;;;;;;-2.86;100.00;100442.09;5053056;28;19925;-80
2021/04/13 01:43:22;;;;;;;;;;;;;;;-3.14;100.00;100452.16;5053618;28;20010;-81
2021/04/13 01:45:50;;;;;;;;;;;;;;;-3.15;100.00;100450.53;5085438;28;19925;-80
2021/04/13 01:48:17;;;;;;;;;;;;;;;-3.15;100.00;100456.00;5053344;28;20319;-80
2021/04/13 01:50:45;;;;;;;;;;;;;;;-3.07;100.00;100447.09;5052889;28;19925;-80
2021/04/13 01:53:17;;;;;;;;;;;;;;;-3.10;100.00;100452.34;5085679;28;19928;-80
2021/04/13 01:55:51;;;;;;;;;;;;;;;-2.89;100.00;100453.63;5053245;28;19943;-80
2021/04/13 01:58:36;;;;;;;;;;;;;;;-2.94;100.00;100451.78;5053124;28;19932;-80
2021/04/13 02:01:07;;;;;;;;;;;;;;;-2.72;100.00;100454.66;5085861;28;20014;-80
2021/04/13 02:03:41;;;;;;;;;;;;;;;-2.91;100.00;100456.69;5057061;28;20013;-80
2021/04/13 02:06:21;;;;;;;;;;;;;;;-3.08;100.00;100453.69;5056914;28;19936;-80
2021/04/13 02:08:51;;;;;;;;;;;;;;;-3.21;100.00;100457.19;5056994;28;20023;-80
2021/04/13 02:11:26;;;;;;;;;;;;;;;-3.23;100.00;100462.16;5057167;28;20505;-80
2021/04/13 02:13:56;;;;;;;;;;;;;;;-3.29;100.00;100452.44;5057001;28;19974;-80
2021/04/13 02:16:37;;;;;;;;;;;;;;;-3.21;100.00;100462.66;5055823;28;19948;-80
2021/04/13 02:19:07;;;;;;;;;;;;;;;-3.36;100.00;100454.72;5056706;28;20019;-80
2021/04/13 02:21:36;;;;;;;;;;;;;;;-3.07;100.00;100462.69;5057319;28;20284;-80
2021/04/13 02:24:07;;;;;;;;;;;;;;;-2.90;100.00;100452.00;5056995;28;19933;-81
2021/04/13 02:26:39;;;;;;;;;;;;;;;-3.02;100.00;100457.97;5057104;28;19925;-82
2021/04/13 02:29:06;;;;;;;;;;;;;;;-3.67;100.00;100464.50;5056886;28;20027;-82
2021/04/13 02:31:36;;;;;;;;;;;;;;;-3.80;100.00;100459.78;5055470;28;20364;-80
2021/04/13 02:34:11;;;;;;;;;;;;;;;-3.68;100.00;100468.34;5056124;28;19932;-80
2021/04/13 02:36:38;;;;;;;;;;;;;;;-3.53;100.00;100465.41;5055770;28;19925;-80
2021/04/13 02:39:27;;;;;;;;;;;;;;;-3.29;100.00;100455.16;5055255;28;19929;-80
2021/04/13 02:42:00;;;;;;;;;;;;;;;-3.41;100.00;100465.75;5056488;28;19925;-79
2021/04/13 02:44:27;;;;;;;;;;;;;;;-3.31;100.00;100456.56;5088685;28;19935;-80
2021/04/13 02:46:56;;;;;;;;;;;;;;;-3.46;100.00;100460.34;5056170;28;20019;-80
2021/04/13 02:49:25;;;;;;;;;;;;;;;-3.36;100.00;100454.72;5056059;28;19925;-80
2021/04/13 02:51:56;;;;;;;;;;;;;;;-3.45;100.00;100447.50;5054929;28;20307;-80
2021/04/13 02:54:24;;;;;;;;;;;;;;;-3.53;100.00;100456.38;5056307;28;19948;-80
2021/04/13 02:56:51;;;;;;;;;;;;;;;-3.26;100.00;100451.81;5056064;28;20434;-81
2021/04/13 02:59:18;;;;;;;;;;;;;;;-3.30;100.00;100453.53;5054921;28;19925;-80
2021/04/13 03:02:04;;;;;;;;;;;;;;;-3.59;100.00;100461.13;5088215;28;19991;-80
2021/04/13 03:04:35;;;;;;;;;;;;;;;-3.95;100.00;100451.81;5043570;28;19925;-80
2021/04/13 03:07:03;;;;;;;;;;;;;;;-4.00;100.00;100449.16;5054784;28;19931;-80
2021/04/13 03:09:33;;;;;;;;;;;;;;;-3.69;100.00;100450.34;5055845;28;19972;-80
2021/04/13 03:12:02;;;;;;;;;;;;;;;-3.53;100.00;100451.75;5055939;28;19929;-80
2021/04/13 03:14:37;;;;;;;;;;;;;;;-3.64;100.00;100452.19;5054686;28;19932;-80
2021/04/13 03:17:07;;;;;;;;;;;;;;;-3.55;100.00;100455.84;5055604;28;19932;-80
2021/04/13 03:19:34;;;;;;;;;;;;;;;-3.74;100.00;100453.13;5055587;28;19928;-80
2021/04/13 03:22:03;;;;;;;;;;;;;;;-3.79;100.00;100453.22;5054608;28;19925;-80
2021/04/13 03:24:35;;;;;;;;;;;;;;;-3.70;100.00;100452.25;5054343;28;19967;-80
2021/04/13 03:27:08;;;;;;;;;;;;;;;-3.69;100.00;100450.34;5054538;28;20008;-79
2021/04/13 03:29:42;;;;;;;;;;;;;;;-3.63;100.00;100449.16;5087708;28;19928;-80
2021/04/13 03:32:10;;;;;;;;;;;;;;;-3.46;100.00;100449.44;5055159;28;19925;-80
2021/04/13 03:34:42;;;;;;;;;;;;;;;-3.60;100.00;100451.28;5054039;28;19932;-80
2021/04/13 03:37:10;;;;;;;;;;;;;;;-3.50;100.00;100451.13;5055520;28;19952;-80
2021/04/13 03:39:38;;;;;;;;;;;;;;;-3.68;100.00;100453.88;5055054;28;19925;-80
2021/04/13 03:42:05;;;;;;;;;;;;;;;-3.64;100.00;100450.25;5055253;28;19936;-80
2021/04/13 03:44:36;;;;;;;;;;;;;;;-3.75;100.00;100446.88;5055023;28;20019;-79
2021/04/13 03:47:08;;;;;;;;;;;;;;;-3.87;100.00;100448.44;5054869;28;19925;-80
2021/04/13 03:49:36;;;;;;;;;;;;;;;-3.81;100.00;100449.97;5053961;28;19932;-80
2021/04/13 03:52:19;;;;;;;;;;;;;;;-3.85;100.00;100451.69;5054885;28;19925;-80
2021/04/13 03:54:45;;;;;;;;;;;;;;;-3.95;100.00;100452.63;5055079;28;19936;-80
2021/04/13 03:57:12;;;;;;;;;;;;;;;-3.96;100.00;100455.66;5054571;28;19928;-80
2021/04/13 03:59:43;;;;;;;;;;;;;;;-3.78;100.00;100446.66;5054963;28;19971;-80
2021/04/13 04:02:10;;;;;;;;;;;;;;;-3.63;100.00;100449.16;5054407;28;20430;-80
2021/04/13 04:04:39;;;;;;;;;;;;;;;-3.92;100.00;100449.31;5054810;28;20380;-80
2021/04/13 04:07:20;;;;;;;;;;;;;;;-3.93;100.00;100453.16;5054711;28;19929;-79
2021/04/13 04:09:46;;;;;;;;;;;;;;;-3.89;100.00;100445.16;5054776;28;19932;-80
2021/04/13 04:12:15;;;;;;;;;;;;;;;-4.10;100.00;100443.84;5054490;28;20090;-80
2021/04/13 04:14:53;;;;;;;;;;;;;;;-4.04;100.00;100448.94;5054229;28;19925;-80
2021/04/13 04:17:20;;;;;;;;;;;;;;;-3.90;100.00;100451.75;5053248;28;19925;-80
2021/04/13 04:19:56;;;;;;;;;;;;;;;-3.98;100.00;100458.69;5086569;28;20395;-80
2021/04/13 04:22:24;;;;;;;;;;;;;;;-3.97;100.00;100454.84;5054129;28;19924;-80
2021/04/13 04:24:52;;;;;;;;;;;;;;;-4.04;100.00;100459.03;5052865;28;20019;-80
2021/04/13 04:27:25;;;;;;;;;;;;;;;-3.90;100.00;100457.22;5054168;28;19925;-80
2021/04/13 04:30:10;;;;;;;;;;;;;;;-4.07;100.00;100463.19;5086310;28;20356;-80
2021/04/13 04:32:43;;;;;;;;;;;;;;;-4.03;100.00;100460.69;5054155;28;19932;-80
2021/04/13 04:35:11;;;;;;;;;;;;;;;-3.85;100.00;100463.41;5054070;28;20296;-79
2021/04/13 04:37:56;;;;;;;;;;;;;;;-3.90;100.00;100468.13;5053881;28;19986;-80
2021/04/13 04:40:26;;;;;;;;;;;;;;;-3.55;100.00;100462.13;5054063;28;20035;-79
2021/04/13 04:42:53;;;;;;;;;;;;;;;-3.78;100.00;100460.31;5053828;28;20372;-80
2021/04/13 04:45:32;;;;;;;;;;;;;;;-3.96;100.00;100467.41;5053689;28;19924;-79
2021/04/13 04:48:00;;;;;;;;;;;;;;;-4.32;100.00;100463.53;5053767;28;19960;-79
2021/04/13 04:50:26;;;;;;;;;;;;;;;-4.27;100.00;100468.91;5071985;28;20387;-79
2021/04/13 04:52:53;;;;;;;;;;;;;;;-4.18;100.00;100474.53;5052522;28;20025;-79
2021/04/13 04:55:20;;;;;;;;;;;;;;;-3.89;100.00;100467.00;5052481;28;19924;-80
2021/04/13 04:57:47;;;;;;;;;;;;;;;-3.96;100.00;100464.69;5053742;28;19931;-79
2021/04/13 05:00:14;;;;;;;;;;;;;;;-4.07;100.00;100476.00;5053252;28;20015;-79
2021/04/13 05:02:40;;;;;;;;;;;;;;;-4.04;100.00;100464.50;5053603;28;20338;-80
2021/04/13 05:05:07;;;;;;;;;;;;;;;-3.88;100.00;100474.13;5053535;28;19932;-80
2021/04/13 05:07:34;;;;;;;;;;;;;;;-3.80;100.00;100465.25;5053615;28;19925;-80
2021/04/13 05:10:01;;;;;;;;;;;;;;;-3.69;100.00;100466.72;5053556;28;19931;-79
2021/04/13 05:12:27;;;;;;;;;;;;;;;-3.88;100.00;100474.91;5053297;28;19925;-80
2021/04/13 05:14:54;;;;;;;;;;;;;;;-3.97;100.00;100475.88;5051970;28;20414;-79
2021/04/13 05:17:21;;;;;;;;;;;;;;;-4.14;100.00;100470.09;5035738;28;20020;-80
2021/04/13 05:19:48;;;;;;;;;;;;;;;-4.20;100.00;100479.47;5053344;28;19975;-80
2021/04/13 05:22:15;;;;;;;;;;;;;;;-4.19;100.00;100481.09;5052038;28;19925;-80
2021/04/13 05:24:42;;;;;;;;;;;;;;;-4.14;100.00;100481.03;5051944;28;20296;-81
2021/04/13 05:27:09;;;;;;;;;;;;;;;-4.23;100.00;100482.78;5052969;28;20317;-79
2021/04/13 05:29:35;;;;;;;;;;;;;;;-4.19;100.00;100481.09;5053242;28;20400;-79
2021/04/13 05:32:02;;;;;;;;;;;;;;;-3.95;100.00;100485.41;5053344;28;20368;-80
2021/04/13 05:34:28;;;;;;;;;;;;;;;-3.42;100.00;100482.44;5053153;28;20432;-80
2021/04/13 05:36:55;;;;;;;;;;;;;;;-3.08;100.00;100486.50;5054934;28;19935;-80
2021/04/13 05:39:23;;;;;;;;;;;;;;;-2.30;100.00;100494.59;5057334;28;20458;-79
2021/04/13 05:41:50;;;;;;;;;;;;;;;-2.17;100.00;100491.88;5055860;28;19925;-80
2021/04/13 05:44:20;;;;;;;;;;;;;;;-1.73;100.00;100498.59;5054963;28;20261;-80
2021/04/13 05:46:47;;;;;;;;;;;;;;;-2.10;100.00;100492.28;5054893;28;19925;-80
2021/04/13 05:49:13;;;;;;;;;;;;;;;-2.45;100.00;100492.16;5057004;28;19948;-79
2021/04/13 05:51:40;;;;;;;;;;;;;;;-2.50;100.00;100493.06;5057088;28;19925;-80
2021/04/13 05:54:06;;;;;;;;;;;;;;;-1.93;100.00;100499.84;5056060;28;19931;-80
2021/04/13 05:56:38;;;;;;;;;;;;;;;-1.58;100.00;100495.50;5056393;28;20007;-80
2021/04/13 05:59:06;;;;;;;;;;;;;;;-1.46;100.00;100496.59;5055989;28;20402;-81
2021/04/13 06:01:33;;;;;;;;;;;;;;;-1.68;100.00;100509.47;5057291;28;20007;-80
2021/04/13 06:04:00;;;;;;;;;;;;;;;-1.78;100.00;100506.91;5056726;28;19925;-78
2021/04/13 06:06:27;;;;;;;;;;;;;;;-1.54;100.00;100505.53;5056610;28;20018;-79
2021/04/13 06:08:54;;;;;;;;;;;;;;;-1.11;100.00;100514.13;5064833;28;20023;-79
2021/04/13 06:11:23;;;;;;;;;;;;;;;-0.65;100.00;100514.59;5068845;28;19925;-79
2021/04/13 06:13:53;;;;;;;;;;;;;;;-0.87;100.00;100514.63;5069986;28;20376;-79
2021/04/13 06:16:21;;;;;;;;;;;;;;;-0.72;100.00;100516.97;5074641;28;19924;-79
2021/04/13 06:18:49;;;;;;;;;;;;;;;-0.23;100.00;100523.00;5067718;28;19924;-78
2021/04/13 06:21:15;;;;;;;;;;;;;;;0.02;100.00;100524.25;5057516;28;20107;-79
2021/04/13 06:23:42;;;;;;;;;;;;;;;-0.23;100.00;100522.22;5067556;28;19932;-78
2021/04/13 06:26:08;;;;;;;;;;;;;;;-0.34;100.00;100526.38;5068002;28;19925;-79
2021/04/13 06:28:35;;;;;;;;;;;;;;;-0.26;100.00;100528.34;5073663;28;20410;-78
2021/04/13 06:31:02;;;;;;;;;;;;;;;0.10;100.00;100517.97;5069553;28;19979;-79
2021/04/13 06:33:30;;;;;;;;;;;;;;;0.81;100.00;100517.41;5069181;28;19924;-79
2021/04/13 06:35:57;;;;;;;;;;;;;;;1.69;100.00;100524.84;5072156;28;19958;-79
2021/04/13 06:38:27;;;;;;;;;;;;;;;2.29;100.00;100523.75;5068712;28;19975;-78
2021/04/13 06:41:09;;;;;;;;;;;;;;;3.11;100.00;100523.75;5074379;28;19952;-82
2021/04/13 06:43:38;;;;;;;;;;;;;;;4.01;100.00;100517.06;5054645;28;20026;-82
2021/04/13 06:46:17;;;;;;;;;;;;;;;4.83;100.00;100516.50;5055136;28;19976;-81
2021/04/13 06:48:44;;;;;;;;;;;;;;;5.50;100.00;100507.31;5056328;28;19971;-81
2021/04/13 06:51:10;;;;;;;;;;;;;;;6.12;100.00;100507.38;5064130;28;20520;-81
2021/04/13 06:54:12;;;;;;;;;;;;;;;6.88;100.00;100501.19;5056156;28;19970;-82
2021/04/13 06:56:47;;;;;;;;;;;;;;;7.57;100.00;100503.00;5015665;28;20028;-87
2021/04/13 06:59:28;;;;;;;;;;;;;;;7.82;100.00;100507.03;5011258;28;19948;-78
2021/04/13 07:01:56;;;;;;;;;;;;;;;8.01;100.00;100504.97;5032968;28;19932;-83
2021/04/13 07:04:37;;;;;;;;;;;;;;;8.22;100.00;100505.38;5033280;28;19925;-82
2021/04/13 07:07:17;;;;;;;;;;;;;;;8.45;100.00;100497.78;5032767;28;19944;-82
2021/04/13 07:09:47;;;;;;;;;;;;;;;8.42;100.00;100498.53;5016825;28;19932;-83
2021/04/13 07:12:14;;;;;;;;;;;;;;;8.85;100.00;100491.56;5033579;28;19925;-82
2021/04/13 07:14:56;;;;;;;;;;;;;;;8.72;100.00;100496.56;5017029;28;19998;-82
2021/04/13 07:17:49;;;;;;;;;;;;;;;9.02;100.00;100491.00;5015746;28;19970;-83
2021/04/13 07:20:20;;;;;;;;;;;;;;;8.15;100.00;100499.66;4993426;28;20140;-81
2021/04/13 07:22:49;;;;;;;;;;;;;;;7.56;100.00;100499.41;5019922;28;19931;-80
2021/04/13 07:25:20;;;;;;;;;;;;;;;7.13;100.00;100499.75;5015477;28;19925;-80
2021/04/13 07:27:51;;;;;;;;;;;;;;;7.00;100.00;100501.88;5032484;28;20324;-80
2021/04/13 07:30:18;;;;;;;;;;;;;;;6.57;100.00;100506.88;5040470;28;19925;-80
2021/04/13 07:32:45;;;;;;;;;;;;;;;6.63;100.00;100508.19;5067020;28;20382;-80
2021/04/13 07:35:15;;;;;;;;;;;;;;;7.20;100.00;100505.44;5070486;28;19925;-79
2021/04/13 07:37:43;;;;;;;;;;;;;;;7.09;100.00;100504.41;5057502;28;19925;-80
2021/04/13 07:40:15;;;;;;;;;;;;;;;6.65;100.00;100508.66;5037581;28;20434;-78
2021/04/13 07:42:45;;;;;;;;;;;;;;;6.40;100.00;100510.84;5053991;28;20284;-81
2021/04/13 07:45:21;;;;;;;;;;;;;;;6.50;100.00;100507.50;5055366;28;19931;-81
2021/04/13 07:48:00;;;;;;;;;;;;;;;6.29;100.00;100506.19;5037526;28;20364;-81
2021/04/13 07:50:47;;;;;;;;;;;;;;;5.93;100.00;100512.03;5070522;28;20379;-82
2021/04/13 07:53:16;;;;;;;;;;;;;;;6.05;100.00;100509.16;5082639;28;20368;-82
2021/04/13 07:56:05;;;;;;;;;;;;;;;6.30;100.00;100508.59;5071926;28;19925;-82
2021/04/13 07:58:40;;;;;;;;;;;;;;;6.17;100.00;100514.63;5064511;28;19924;-82
2021/04/13 08:01:08;;;;;;;;;;;;;;;6.19;100.00;100517.84;5071407;28;19932;-82
2021/04/13 08:03:35;;;;;;;;;;;;;;;6.20;100.00;100519.47;5098967;28;20422;-82
2021/04/13 08:06:22;;;;;;;;;;;;;;;6.38;100.00;100517.91;5067758;28;20015;-82
2021/04/13 08:08:50;;;;;;;;;;;;;;;6.65;100.00;100508.66;5061354;28;19925;-82
2021/04/13 08:11:19;;;;;;;;;;;;;;;7.14;100.00;100512.47;5106545;28;19974;-82
2021/04/13 08:14:14;;;;;;;;;;;;;;;7.56;100.00;100504.19;5063101;28;19925;-82
2021/04/13 08:16:41;;;;;;;;;;;;;;;7.47;100.00;100501.63;5066829;28;20429;-82
2021/04/13 08:19:21;;;;;;;;;;;;;;;7.55;100.00;100505.34;5068750;28;19970;-82
2021/04/13 08:22:06;;;;;;;;;;;;;;;7.77;100.00;100508.13;5079803;28;20272;-82
2021/04/13 08:24:44;;;;;;;;;;;;;;;8.32;100.00;100504.75;5086310;28;19959;-82
2021/04/13 08:27:10;;;;;;;;;;;;;;;8.23;100.00;100500.59;5036627;28;20916;-82
2021/04/13 08:29:47;;;;;;;;;;;;;;;8.30;100.00;100509.09;5053192;28;19924;-82
2021/04/13 08:35:21;;;;;;;;;;;;;;;8.84;100.00;100498.34;5053016;28;20006;-82
2021/04/13 08:37:52;;;;;;;;;;;;;;;9.19;100.00;100491.22;5054205;28;19925;-83
2021/04/13 08:40:48;;;;;;;;;;;;;;;8.95;100.00;100488.16;5086705;28;19936;-82
2021/04/13 08:43:28;;;;;;;;;;;;;;;9.59;100.00;100489.69;5044130;28;19939;-82
2021/04/13 08:46:13;;;;;;;;;;;;;;;10.42;100.00;100488.88;5054568;28;19976;-83
2021/04/13 08:48:55;;;;;;;;;;;;;;;11.05;100.00;100480.84;5054100;28;19925;-82
2021/04/13 08:51:34;;;;;;;;;;;;;;;10.60;100.00;100476.59;5086238;28;19929;-82
2021/04/13 08:54:07;;;;;;;;;;;;;;;10.61;100.00;100477.41;5041580;28;19928;-82
2021/04/13 08:56:34;;;;;;;;;;;;;;;10.38;100.00;100477.66;5053819;28;20264;-82
2021/04/13 08:59:04;;;;;;;;;;;;;;;10.85;100.00;100474.75;5054193;28;19924;-82
2021/04/13 09:01:35;;;;;;;;;;;;;;;11.17;100.00;100469.31;5054288;28;19932;-82
2021/04/13 09:04:04;;;;;;;;;;;;;;;10.65;100.00;100465.06;5053963;28;19925;-82
2021/04/13 09:06:36;;;;;;;;;;;;;;;9.30;100.00;100471.03;5053918;28;19948;-82
2021/04/13 09:09:08;;;;;;;;;;;;;;;9.27;100.00;100477.38;5069227;28;20014;-82
2021/04/13 09:11:35;;;;;;;;;;;;;;;9.31;100.00;100479.03;5051972;28;19933;-82
2021/04/13 09:14:08;;;;;;;;;;;;;;;9.54;100.00;100490.03;5053956;28;19925;-82
2021/04/13 09:16:45;;;;;;;;;;;;;;;9.69;100.00;100491.78;5052698;28;19925;-81
2021/04/13 09:19:22;;;;;;;;;;;;;;;8.73;100.00;100481.47;5052334;28;19925;-81
2021/04/13 09:21:50;;;;;;;;;;;;;;;9.41;100.00;100494.25;5055237;28;19932;-82
2021/04/13 09:24:21;;;;;;;;;;;;;;;9.59;100.00;100489.69;5070929;28;20007;-81
2021/04/13 09:27:07;;;;;;;;;;;;;;;9.80;100.00;100492.69;5104629;28;19958;-79
2021/04/13 09:29:37;;;;;;;;;;;;;;;9.26;100.00;100500.84;5043466;28;19994;-82
2021/04/13 09:32:05;;;;;;;;;;;;;;;9.03;100.00;100496.22;5052425;28;20461;-82
2021/04/13 09:34:57;;;;;;;;;;;;;;;9.01;100.00;100493.00;5053387;28;20572;-82
2021/04/13 09:37:24;;;;;;;;;;;;;;;8.80;100.00;100492.72;5053706;28;20372;-82
2021/04/13 09:40:10;;;;;;;;;;;;;;;9.15;100.00;100484.00;5053652;28;19929;-82
2021/04/13 09:42:59;;;;;;;;;;;;;;;9.44;100.00;100487.91;5015311;28;20299;-82
2021/04/13 09:45:45;;;;;;;;;;;;;;;9.87;100.00;100492.75;5078667;28;19928;-82
2021/04/13 09:48:12;;;;;;;;;;;;;;;9.99;100.00;100490.50;5080089;28;19925;-82
2021/04/13 09:50:46;;;;;;;;;;;;;;;9.80;100.00;100485.09;5046982;28;19924;-82
2021/04/13 09:53:21;;;;;;;;;;;;;;;10.01;100.00;100490.09;5048371;28;19929;-82
2021/04/13 09:56:01;;;;;;;;;;;;;;;9.90;100.00;100495.59;5052388;28;19936;-82
2021/04/13 09:58:30;;;;;;;;;;;;;;;9.01;100.00;100493.00;5053115;28;20325;-82
2021/04/13 10:00:57;;;;;;;;;;;;;;;8.83;100.00;100491.97;5059349;28;19928;-82
2021/04/13 10:03:50;;;;;;;;;;;;;;;8.97;100.00;100492.16;5052518;28;19987;-81
2021/04/13 10:06:19;;;;;;;;;;;;;;;9.10;100.00;100490.72;5069049;28;19928;-82
2021/04/13 10:08:52;;;;;;;;;;;;;;;9.25;100.00;100477.75;5083916;28;20257;-81
2021/04/13 10:11:28;;;;;;;;;;;;;;;9.58;100.00;100482.50;5080068;28;20414;-81
2021/04/13 10:14:13;;;;;;;;;;;;;;;9.52;100.00;100478.44;5058012;28;20368;-82
2021/04/13 10:16:59;;;;;;;;;;;;;;;9.24;100.00;100480.94;5059414;28;19925;-82
2021/04/13 10:19:44;;;;;;;;;;;;;;;8.99;100.00;100483.41;5084565;28;19932;-81
2021/04/13 10:22:33;;;;;;;;;;;;;;;8.83;100.00;100480.81;5054256;28;19932;-82
2021/04/13 10:25:09;;;;;;;;;;;;;;;8.93;100.00;100471.81;5040066;28;20477;-82
2021/04/13 10:28:02;;;;;;;;;;;;;;;9.04;100.00;100471.94;5039570;28;20479;-81
2021/04/13 10:30:34;;;;;;;;;;;;;;;9.28;100.00;100474.22;5034598;28;20423;-82
2021/04/13 10:33:10;;;;;;;;;;;;;;;9.79;100.00;100474.31;5022337;28;20606;-83
2021/04/13 10:35:45;;;;;;;;;;;;;;;10.22;100.00;100470.75;4999448;28;19930;-83
2021/04/13 10:38:14;;;;;;;;;;;;;;;10.15;100.00;100462.31;5039126;28;19971;-82
2021/04/13 10:41:05;;;;;;;;;;;;;;;9.86;100.00;100460.44;5034253;28;20399;-82
2021/04/13 10:43:31;;;;;;;;;;;;;;;9.73;100.00;100468.31;5018044;28;20368;-82
2021/04/13 10:46:16;;;;;;;;;;;;;;;10.10;100.00;100465.47;5018138;28;19925;-82
2021/04/13 10:49:02;;;;;;;;;;;;;;;10.23;100.00;100469.56;5033556;28;19937;-83
2021/04/13 10:51:42;;;;;;;;;;;;;;;10.53;100.00;100467.38;5030748;28;19929;-81
2021/04/13 10:54:18;;;;;;;;;;;;;;;10.79;100.00;100459.56;5039630;28;20416;-83
2021/04/13 10:56:45;;;;;;;;;;;;;;;10.76;100.00;100454.75;5050369;28;19925;-83
2021/04/13 10:59:30;;;;;;;;;;;;;;;11.01;100.00;100468.84;5034477;28;19926;-83
2021/04/13 11:02:13;;;;;;;;;;;;;;;10.71;100.00;100457.09;5017464;28;20019;-83
2021/04/13 11:04:55;;;;;;;;;;;;;;;10.80;100.00;100458.34;5017887;28;19925;-84
2021/04/13 11:07:37;;;;;;;;;;;;;;;11.17;100.00;100472.09;5044119;28;19931;-84
2021/04/13 11:10:22;;;;;;;;;;;;;;;11.36;100.00;100460.56;5056168;28;20419;-84
2021/04/13 11:13:00;;;;;;;;;;;;;;;10.96;100.00;100458.03;5026819;28;19925;-84
2021/04/13 11:15:43;;;;;;;;;;;;;;;10.88;100.00;100473.97;5055640;28;19932;-83
2021/04/13 11:18:28;;;;;;;;;;;;;;;10.28;100.00;100460.81;5055899;28;19925;-83
2021/04/13 11:20:55;;;;;;;;;;;;;;;9.89;100.00;100463.25;5038268;28;19929;-83
2021/04/13 11:23:41;;;;;;;;;;;;;;;9.91;100.00;100452.50;5054865;28;19932;-83
2021/04/13 11:26:28;;;;;;;;;;;;;;;9.74;100.00;100460.75;5042264;28;19960;-83
2021/04/13 11:29:14;;;;;;;;;;;;;;;9.83;100.00;100461.22;5055744;28;19968;-83
2021/04/13 11:31:55;;;;;;;;;;;;;;;10.20;100.00;100464.75;5055360;28;19925;-83
2021/04/13 11:34:41;;;;;;;;;;;;;;;10.40;100.00;100468.88;5054857;28;19948;-83
2021/04/13 11:37:36;;;;;;;;;;;;;;;10.54;100.00;100464.19;5073361;28;19924;-83
2021/04/13 11:40:14;;;;;;;;;;;;;;;10.64;100.00;100466.25;5066275;28;19932;-83
2021/04/13 11:42:41;;;;;;;;;;;;;;;11.00;100.00;100453.25;5069621;28;20007;-84
2021/04/13 11:45:27;;;;;;;;;;;;;;;11.07;100.00;100452.47;5027894;28;19936;-83
2021/04/13 11:48:12;;;;;;;;;;;;;;;11.01;100.00;100454.88;5071168;28;19925;-84
2021/04/13 11:50:53;;;;;;;;;;;;;;;10.87;100.00;100454.78;5071075;28;19931;-83
2021/04/13 11:53:28;;;;;;;;;;;;;;;10.55;100.00;100459.41;5059758;28;19925;-83
2021/04/13 11:55:55;;;;;;;;;;;;;;;10.69;100.00;100470.69;5062441;28;20024;-83
2021/04/13 11:58:31;;;;;;;;;;;;;;;10.64;100.00;100466.25;5056197;28;20415;-82
2021/04/13 12:01:14;;;;;;;;;;;;;;;10.47;100.00;100463.34;5042954;28;20003;-83
2021/04/13 12:03:56;;;;;;;;;;;;;;;10.18;100.00;100465.13;5053103;28;20249;-82
2021/04/13 12:06:42;;;;;;;;;;;;;;;10.01;100.00;100470.56;5070376;28;20395;-81
2021/04/13 12:09:08;;;;;;;;;;;;;;;9.58;100.00;100476.91;5054561;28;19932;-88
2021/04/13 12:11:46;;;;;;;;;;;;;;;9.42;100.00;100476.34;5049844;28;19972;-79
2021/04/13 12:14:27;;;;;;;;;;;;;;;9.27;100.00;100480.16;5050341;28;20272;-79
2021/04/13 12:16:54;;;;;;;;;;;;;;;9.19;100.00;100471.69;5051231;28;19925;-79
2021/04/13 12:19:22;;;;;;;;;;;;;;;9.28;100.00;100481.75;5041370;28;20380;-79
2021/04/13 12:21:53;;;;;;;;;;;;;;;9.27;100.00;100477.38;5056167;28;19925;-79
2021/04/13 12:24:39;;;;;;;;;;;;;;;9.01;100.00;100481.84;5055414;28;19935;-79
2021/04/13 12:27:25;;;;;;;;;;;;;;;8.48;100.00;100494.25;5056989;28;19925;-79
2021/04/13 12:30:10;;;;;;;;;;;;;;;8.36;100.00;100496.44;5056008;28;19929;-79
2021/04/13 12:32:41;;;;;;;;;;;;;;;8.54;100.00;100506.66;5084912;28;19935;-79
2021/04/13 12:35:08;;;;;;;;;;;;;;;8.47;100.00;100498.22;5054249;28;19925;-78
2021/04/13 12:37:45;;;;;;;;;;;;;;;8.46;100.00;100496.63;5052784;28;19929;-78
2021/04/13 12:40:14;;;;;;;;;;;;;;;8.29;100.00;100499.09;5088543;28;20371;-78
2021/04/13 12:42:41;;;;;;;;;;;;;;;8.25;100.00;100503.81;5050505;28;20427;-78
2021/04/13 12:45:23;;;;;;;;;;;;;;;8.28;100.00;100506.69;5050651;28;20399;-80
2021/04/13 12:47:52;;;;;;;;;;;;;;;8.28;100.00;100509.47;5083630;28;19935;-80
2021/04/13 12:50:23;;;;;;;;;;;;;;;8.19;100.00;100506.09;5046128;28;19925;-80
2021/04/13 12:53:15;;;;;;;;;;;;;;;8.39;100.00;100496.47;5037483;28;19925;-80
2021/04/13 12:55:44;;;;;;;;;;;;;;;8.32;100.00;100492.78;5059012;28;19925;-80
2021/04/13 12:58:20;;;;;;;;;;;;;;;8.37;100.00;100496.06;5082304;28;20391;-80
2021/04/13 13:00:48;;;;;;;;;;;;;;;8.41;100.00;100490.53;5049193;28;19935;-77
2021/04/13 13:03:17;;;;;;;;;;;;;;;8.36;100.00;100494.44;5050168;28;19925;-77
2021/04/13 13:05:44;;;;;;;;;;;;;;;8.31;100.00;100500.34;5049526;28;19932;-79
2021/04/13 13:08:28;;;;;;;;;;;;;;;8.55;100.00;100497.16;5031974;28;19949;-78
2021/04/13 13:11:07;;;;;;;;;;;;;;;8.53;100.00;100487.53;5044036;28;19925;-78
2021/04/13 13:13:35;;;;;;;;;;;;;;;8.79;100.00;100499.47;5081336;28;19931;-78